createdAt,value
2023-06-18T00:06:11.828Z,1002.2
2023-06-18T00:16:19.811Z,1002.2
2023-06-18T00:26:27.696Z,1002.2
2023-06-18T00:36:35.644Z,1002.2
2023-06-18T00:46:43.594Z,1002.1
2023-06-18T00:56:51.524Z,1002
2023-06-18T01:06:59.455Z,1002
2023-06-18T01:17:07.451Z,1001.9
2023-06-18T01:27:15.333Z,1001.9
2023-06-18T01:37:23.280Z,1001.9
2023-06-18T01:47:31.235Z,1001.8
2023-06-18T01:57:39.396Z,1001.9
2023-06-18T02:07:45.331Z,1001.8
2023-06-18T02:17:51.460Z,1001.7
2023-06-18T02:27:59.425Z,1001.7
2023-06-18T02:38:05.576Z,1001.7
2023-06-18T02:48:11.736Z,1001.7
2023-06-18T02:58:19.687Z,1001.6
2023-06-18T03:18:35.600Z,1001.6
2023-06-18T03:28:43.466Z,1001.7
2023-06-18T03:38:51.394Z,1001.8
2023-06-18T03:48:59.354Z,1001.8
2023-06-18T03:59:07.302Z,1001.8
2023-06-18T04:09:15.222Z,1001.9
2023-06-18T04:19:23.179Z,1002
2023-06-18T04:29:31.326Z,1002
2023-06-18T04:39:39.043Z,1002
2023-06-18T04:49:46.997Z,1002
2023-06-18T05:10:02.899Z,1002
2023-06-18T05:20:10.851Z,1002
2023-06-18T05:30:18.795Z,1001.9
2023-06-18T05:40:27.000Z,1001.9
2023-06-18T05:50:34.635Z,1002
2023-06-18T06:00:42.621Z,1002.1
2023-06-18T06:10:50.535Z,1002.1
2023-06-18T06:20:56.684Z,1002.1
2023-06-18T06:31:02.859Z,1002.1
2023-06-18T06:41:12.130Z,1002.1
2023-06-18T06:51:16.963Z,1002.2
2023-06-18T07:01:24.923Z,1002.3
2023-06-18T07:11:32.817Z,1002.2
2023-06-18T07:21:40.751Z,1002.2
2023-06-18T07:31:48.716Z,1002.1
2023-06-18T07:41:56.654Z,1002.2
2023-06-18T07:52:04.582Z,1002.1
2023-06-18T08:02:12.666Z,1002.2
2023-06-18T08:12:20.463Z,1002.1
2023-06-18T08:22:28.406Z,1002
2023-06-18T08:32:36.333Z,1002
2023-06-18T08:42:54.682Z,1002
2023-06-18T08:52:52.262Z,1002
2023-06-18T09:03:00.302Z,1001.9
2023-06-18T09:13:08.091Z,1001.9
2023-06-18T09:23:16.066Z,1001.8
2023-06-18T09:33:23.993Z,1001.8
2023-06-18T09:43:31.983Z,1001.8
2023-06-18T09:53:39.881Z,1001.8
2023-06-18T10:03:47.876Z,1001.8
2023-06-18T10:13:55.776Z,1001.8
2023-06-18T10:34:11.647Z,1001.5
2023-06-18T10:44:19.600Z,1001.4
2023-06-18T11:04:35.638Z,1001.3
2023-06-18T11:34:57.514Z,1001.1
2023-06-18T11:45:05.444Z,1001
2023-06-18T11:55:13.358Z,1000.9
2023-06-18T12:05:21.607Z,1000.8
2023-06-18T12:15:29.266Z,1000.7
2023-06-18T12:25:37.177Z,1000.6
2023-06-18T12:35:45.147Z,1000.6
2023-06-18T12:45:53.112Z,1000.5
2023-06-18T12:56:01.025Z,1000.4
2023-06-18T13:06:08.971Z,1000.3
2023-06-18T13:16:16.927Z,1000.3
2023-06-18T13:26:24.836Z,1000.1
2023-06-18T13:36:32.791Z,999.9
2023-06-18T13:46:40.803Z,999.9
2023-06-18T13:56:48.664Z,999.8
2023-06-18T14:06:56.610Z,999.8
2023-06-18T14:17:04.563Z,999.8
2023-06-18T14:27:12.491Z,999.7
2023-06-18T14:37:20.429Z,999.6
2023-06-18T14:57:34.553Z,999.6
2023-06-18T15:07:42.474Z,999.5
2023-06-18T15:17:48.676Z,999.5
2023-06-18T15:27:56.555Z,999.5
2023-06-18T15:38:04.499Z,999.4
2023-06-18T15:48:10.675Z,999.4
2023-06-18T15:58:18.593Z,999.3
2023-06-18T16:08:26.555Z,999.3
2023-06-18T16:18:34.483Z,999.1
2023-06-18T16:28:42.432Z,999.1
2023-06-18T16:38:50.376Z,999
2023-06-18T16:48:58.312Z,999
2023-06-18T16:59:06.261Z,999
2023-06-18T17:09:14.193Z,998.7
2023-06-18T17:19:22.133Z,998.7
2023-06-18T17:39:38.027Z,998.5
2023-06-18T17:49:45.969Z,998.5
2023-06-18T18:10:01.879Z,998.4
2023-06-18T18:20:09.804Z,998.3
2023-06-18T18:30:17.728Z,998.3
2023-06-18T18:50:33.629Z,998.1
2023-06-18T19:00:41.539Z,998.1
2023-06-18T19:10:49.484Z,998.1
2023-06-18T19:20:57.420Z,998.1
2023-06-18T19:31:05.373Z,998.1
2023-06-18T19:41:13.297Z,998.2
2023-06-18T19:51:21.297Z,998.2
2023-06-18T20:01:29.197Z,998.3
2023-06-18T20:11:37.118Z,998.4
2023-06-18T20:21:45.059Z,998.6
2023-06-18T20:31:54.642Z,998.7
2023-06-18T20:42:00.937Z,998.6
2023-06-18T20:52:08.878Z,998.7
2023-06-18T21:02:17.054Z,998.7
2023-06-18T21:12:24.758Z,998.8
2023-06-18T21:22:32.698Z,999
2023-06-18T21:32:40.685Z,999.1
2023-06-18T21:42:48.618Z,999.2
2023-06-18T21:52:56.552Z,999.2
2023-06-18T22:03:04.607Z,999.1
2023-06-18T22:13:12.435Z,999.3
2023-06-18T22:23:20.338Z,999.4
2023-06-18T22:33:28.310Z,999.1
2023-06-18T22:43:36.235Z,998.9
2023-06-18T22:53:44.220Z,998.5
2023-06-18T23:03:52.142Z,998.1
2023-06-18T23:14:00.111Z,998.2
2023-06-18T23:24:06.244Z,998.2
2023-06-18T23:34:12.386Z,998.1
2023-06-18T23:44:20.316Z,998.1
